createdAt,value
2016-12-31T00:00:19.879Z,94.41
2016-12-31T00:01:26.039Z,94.22
2016-12-31T00:02:32.207Z,94.41
2016-12-31T00:03:37.399Z,94.7
2016-12-31T00:04:42.675Z,94.79
2016-12-31T00:05:47.934Z,94.41
2016-12-31T00:06:54.094Z,94.32
2016-12-31T00:08:00.299Z,94.51
2016-12-31T00:09:04.489Z,94.51
2016-12-31T00:10:08.721Z,94.51
2016-12-31T00:11:13.920Z,94.41
2016-12-31T00:12:20.083Z,94.6
2016-12-31T00:13:26.252Z,95.07
2016-12-31T00:14:32.428Z,95.07
2016-12-31T00:15:36.718Z,95.26
2016-12-31T00:16:41.877Z,94.89
2016-12-31T00:17:46.070Z,94.79
2016-12-31T00:18:51.300Z,94.79
2016-12-31T00:19:57.485Z,94.79
2016-12-31T00:21:02.675Z,94.79
2016-12-31T00:22:07.899Z,94.89
2016-12-31T00:23:13.103Z,94.51
2016-12-31T00:24:19.229Z,94.98
2016-12-31T00:25:24.429Z,94.79
2016-12-31T00:26:29.590Z,94.89
2016-12-31T00:27:35.759Z,94.89
2016-12-31T00:28:41.920Z,94.79
2016-12-31T00:29:46.214Z,94.98
2016-12-31T00:30:51.359Z,95.26
2016-12-31T00:31:57.522Z,95.17
2016-12-31T00:33:02.726Z,94.89
2016-12-31T00:34:07.953Z,95.07
2016-12-31T00:35:14.083Z,95.36
2016-12-31T00:36:19.264Z,95.17
2016-12-31T00:37:23.488Z,95.26
2016-12-31T00:38:27.724Z,95.45
2016-12-31T00:39:32.027Z,95.36
2016-12-31T00:40:38.293Z,95.36
2016-12-31T00:41:43.548Z,95.36
2016-12-31T00:42:49.710Z,95.17
2016-12-31T00:43:53.909Z,94.7
2016-12-31T00:44:58.138Z,95.36
2016-12-31T00:46:04.295Z,94.98
2016-12-31T00:47:09.491Z,95.17
2016-12-31T00:48:15.671Z,95.17
2016-12-31T00:49:21.830Z,95.36
2016-12-31T00:50:26.059Z,95.36
2016-12-31T00:51:31.253Z,95.36
2016-12-31T00:52:37.519Z,95.26
2016-12-31T00:53:41.738Z,95.26
2016-12-31T00:54:46.927Z,94.98
2016-12-31T00:55:50.164Z,95.07
2016-12-31T00:56:56.324Z,95.54
2016-12-31T00:58:02.488Z,95.64
2016-12-31T00:59:08.663Z,95.5
2016-12-31T01:00:13.868Z,94.93
2016-12-31T01:01:18.216Z,95.12
2016-12-31T01:02:23.449Z,94.93
2016-12-31T01:03:29.581Z,95.31
2016-12-31T01:04:34.774Z,95.21
2016-12-31T01:05:40.933Z,96.06
2016-12-31T01:06:46.194Z,95.59
2016-12-31T01:07:52.422Z,95.97
2016-12-31T01:08:58.582Z,95.87
2016-12-31T01:10:03.754Z,96.16
2016-12-31T01:11:09.920Z,96.54
2016-12-31T01:12:15.117Z,96.44
2016-12-31T01:13:20.066Z,96.16
2016-12-31T01:14:25.240Z,95.87
2016-12-31T01:15:31.400Z,96.35
2016-12-31T01:16:37.574Z,96.06
2016-12-31T01:17:42.822Z,96.25
2016-12-31T01:18:48.017Z,96.16
2016-12-31T01:19:52.243Z,96.44
2016-12-31T01:20:57.406Z,96.63
2016-12-31T01:22:02.705Z,96.06
2016-12-31T01:23:08.871Z,96.63
2016-12-31T01:24:14.173Z,96.91
2016-12-31T01:25:17.518Z,96.82
2016-12-31T01:26:23.673Z,96.54
2016-12-31T01:27:29.909Z,96.73
2016-12-31T01:28:34.100Z,96.91
2016-12-31T01:29:40.261Z,96.63
2016-12-31T01:30:45.528Z,96.78
2016-12-31T01:31:50.751Z,96.91
2016-12-31T01:32:55.911Z,96.68
2016-12-31T01:34:02.180Z,96.87
2016-12-31T01:35:06.404Z,96.73
2016-12-31T01:36:11.602Z,96.63
2016-12-31T01:37:17.765Z,96.54
2016-12-31T01:38:22.965Z,96.54
2016-12-31T01:39:29.261Z,97.01
2016-12-31T01:40:35.435Z,96.63
2016-12-31T01:41:41.654Z,96.78
2016-12-31T01:42:46.808Z,96.63
2016-12-31T01:43:52.013Z,96.91
2016-12-31T01:44:57.213Z,96.63
2016-12-31T01:46:02.460Z,96.63
2016-12-31T01:47:06.658Z,96.63
2016-12-31T01:48:11.938Z,96.82
2016-12-31T01:49:15.173Z,96.96
2016-12-31T01:50:19.407Z,97.1
2016-12-31T01:51:23.641Z,97.01
2016-12-31T01:52:29.812Z,97.77
2016-12-31T01:53:35.971Z,97.01
2016-12-31T01:54:42.168Z,96.96
2016-12-31T01:55:47.522Z,97.01
2016-12-31T01:56:53.678Z,96.96
2016-12-31T01:57:59.841Z,97.01
2016-12-31T01:59:05.040Z,97.01
2016-12-31T02:00:10.504Z,97.01
2016-12-31T02:01:15.684Z,96.73
2016-12-31T02:02:21.025Z,97.1
2016-12-31T02:03:27.186Z,97.1
2016-12-31T02:04:33.390Z,97.01
2016-12-31T02:05:39.513Z,97.48
2016-12-31T02:06:44.749Z,97.48
2016-12-31T02:07:49.032Z,97.67
2016-12-31T02:08:54.228Z,97.48
2016-12-31T02:09:58.747Z,96.96
2016-12-31T02:11:03.938Z,97.15
2016-12-31T02:12:09.128Z,96.91
2016-12-31T02:13:14.328Z,96.91
2016-12-31T02:14:19.516Z,97.2
2016-12-31T02:15:25.683Z,97.01
2016-12-31T02:16:28.946Z,96.91
2016-12-31T02:17:35.163Z,96.91
2016-12-31T02:18:41.315Z,96.82
2016-12-31T02:20:50.737Z,97.15
2016-12-31T02:21:56.946Z,97.44
2016-12-31T02:23:02.132Z,97.67
2016-12-31T02:24:08.295Z,97.81
2016-12-31T02:25:13.474Z,97.53
2016-12-31T02:26:19.681Z,97.53
2016-12-31T02:27:24.799Z,97.72
2016-12-31T02:28:29.974Z,97.91
2016-12-31T02:29:35.225Z,97.53
2016-12-31T02:30:41.398Z,97.72
2016-12-31T02:31:47.563Z,97.15
2016-12-31T02:32:53.734Z,97.15
2016-12-31T02:33:59.888Z,97.15
2016-12-31T02:35:05.049Z,97.15
2016-12-31T02:36:10.270Z,97.06
2016-12-31T02:37:13.542Z,96.96
2016-12-31T02:38:16.769Z,97.06
2016-12-31T02:39:21.963Z,97.06
2016-12-31T02:40:28.125Z,97.15
2016-12-31T02:41:33.318Z,97.06
2016-12-31T02:42:38.555Z,97.91
2016-12-31T02:43:44.715Z,97.63
2016-12-31T02:44:50.881Z,97.53
2016-12-31T02:45:56.081Z,97.67
2016-12-31T02:47:02.246Z,97.63
2016-12-31T02:48:07.442Z,97.63
2016-12-31T02:49:12.684Z,97.91
2016-12-31T02:50:18.816Z,97.86
2016-12-31T02:51:23.010Z,97.72
2016-12-31T02:52:28.202Z,97.53
2016-12-31T02:53:33.401Z,97.63
2016-12-31T02:54:39.581Z,97.48
2016-12-31T02:55:45.737Z,97.72
2016-12-31T02:57:56.113Z,97.63
2016-12-31T02:59:01.307Z,97.72
2016-12-31T03:00:07.467Z,98.19
2016-12-31T03:01:12.739Z,98
2016-12-31T03:02:17.967Z,98.19
2016-12-31T03:03:22.226Z,97.72
2016-12-31T03:04:27.410Z,97.15
2016-12-31T03:05:33.577Z,98.1
2016-12-31T03:06:37.843Z,97.25
2016-12-31T03:07:44.015Z,97.15
2016-12-31T03:08:48.245Z,97.53
2016-12-31T03:09:54.399Z,97.34
2016-12-31T03:11:00.563Z,97.63
2016-12-31T03:12:06.732Z,97.34
2016-12-31T03:13:11.930Z,97.53
2016-12-31T03:14:18.090Z,97.44
2016-12-31T03:15:22.351Z,97.72
2016-12-31T03:16:26.015Z,98.28
2016-12-31T03:17:30.617Z,98
2016-12-31T03:18:35.790Z,97.81
2016-12-31T03:19:41.070Z,97.63
2016-12-31T03:20:45.292Z,97.44
2016-12-31T03:21:50.487Z,98.1
2016-12-31T03:22:56.653Z,98
2016-12-31T03:24:02.817Z,98.19
2016-12-31T03:25:08.007Z,97.44
2016-12-31T03:26:13.257Z,97.53
2016-12-31T03:27:17.497Z,97.25
2016-12-31T03:28:22.519Z,97.25
2016-12-31T03:29:27.902Z,97.25
2016-12-31T03:30:32.172Z,97.81
2016-12-31T03:31:37.415Z,97.44
2016-12-31T03:32:42.542Z,97.44
2016-12-31T03:33:47.735Z,97.15
2016-12-31T03:34:52.958Z,96.96
2016-12-31T03:35:58.151Z,96.96
2016-12-31T03:37:03.341Z,96.64
2016-12-31T03:38:09.499Z,97.06
2016-12-31T03:39:15.669Z,97.25
2016-12-31T03:40:20.961Z,96.96
2016-12-31T03:41:24.259Z,97.06
2016-12-31T03:42:30.417Z,97.01
2016-12-31T03:43:35.624Z,96.96
2016-12-31T03:44:40.815Z,96.96
2016-12-31T03:45:47.216Z,97.15
2016-12-31T03:46:52.388Z,97.01
2016-12-31T03:47:58.549Z,97.01
2016-12-31T03:49:03.759Z,97.01
2016-12-31T03:50:09.921Z,97.01
2016-12-31T03:51:16.083Z,96.96
2016-12-31T03:52:21.278Z,96.92
2016-12-31T03:54:32.628Z,97.15
2016-12-31T03:55:37.925Z,97.06
2016-12-31T03:56:43.069Z,96.87
2016-12-31T03:57:49.284Z,96.87
2016-12-31T03:58:54.486Z,97.58
2016-12-31T03:59:59.682Z,97.58
2016-12-31T04:01:04.893Z,97.86
2016-12-31T04:02:10.161Z,97.86
2016-12-31T04:03:15.414Z,97.3
2016-12-31T04:04:19.590Z,97.01
2016-12-31T04:05:25.753Z,97.3
2016-12-31T04:06:29.986Z,97.39
2016-12-31T04:07:36.146Z,97.11
2016-12-31T04:08:42.377Z,97.77
2016-12-31T04:09:47.585Z,97.67
2016-12-31T04:10:51.769Z,97.67
2016-12-31T04:11:57.935Z,97.49
2016-12-31T04:13:03.143Z,97.67
2016-12-31T04:14:09.279Z,97.77
2016-12-31T04:15:14.478Z,97.58
2016-12-31T04:16:20.640Z,97.11
2016-12-31T04:17:26.802Z,97.77
2016-12-31T04:18:32.966Z,97.67
2016-12-31T04:19:37.303Z,97.49
2016-12-31T04:20:43.605Z,97.49
2016-12-31T04:21:47.799Z,97.67
2016-12-31T04:22:52.049Z,97.3
2016-12-31T04:23:57.232Z,97.3
2016-12-31T04:25:01.496Z,97.3
2016-12-31T04:26:05.688Z,97.49
2016-12-31T04:27:08.945Z,97.67
2016-12-31T04:28:12.193Z,97.67
2016-12-31T04:29:17.389Z,97.96
2016-12-31T04:30:22.576Z,97.58
2016-12-31T04:31:26.861Z,97.77
2016-12-31T04:32:32.069Z,97.58
2016-12-31T04:33:38.230Z,97.77
2016-12-31T04:34:41.497Z,97.86
2016-12-31T04:35:46.723Z,97.77
2016-12-31T04:36:51.914Z,97.58
2016-12-31T04:37:58.085Z,97.77
2016-12-31T04:39:04.253Z,97.3
2016-12-31T04:40:10.412Z,97.58
2016-12-31T04:41:16.572Z,97.86
2016-12-31T04:42:22.759Z,97.67
2016-12-31T04:43:26.959Z,97.67
2016-12-31T04:44:30.239Z,97.77
2016-12-31T04:45:34.543Z,97.58
2016-12-31T04:46:37.772Z,97.01
2016-12-31T04:47:43.002Z,96.92
2016-12-31T04:48:48.223Z,96.83
2016-12-31T04:49:53.353Z,96.92
2016-12-31T04:50:56.627Z,96.92
2016-12-31T04:52:02.796Z,96.73
2016-12-31T04:53:07.994Z,96.73
2016-12-31T04:54:13.179Z,96.73
2016-12-31T04:55:19.342Z,96.92
2016-12-31T04:56:25.502Z,97.2
2016-12-31T04:57:30.696Z,96.83
2016-12-31T04:58:34.915Z,96.83
2016-12-31T04:59:41.226Z,97.11
2016-12-31T05:00:47.342Z,96.35
2016-12-31T05:01:51.577Z,96.83
2016-12-31T05:02:57.742Z,96.59
2016-12-31T05:04:02.933Z,96.78
2016-12-31T05:05:08.122Z,96.78
2016-12-31T05:06:14.278Z,96.59
2016-12-31T05:07:20.448Z,96.78
2016-12-31T05:08:25.699Z,96.49
2016-12-31T05:09:30.836Z,96.78
2016-12-31T05:10:37.010Z,96.59
2016-12-31T05:11:43.283Z,96.96
2016-12-31T05:12:48.476Z,96.49
2016-12-31T05:13:53.739Z,96.59
2016-12-31T05:14:59.869Z,96.59
2016-12-31T05:16:06.028Z,96.68
2016-12-31T05:17:11.222Z,96.87
2016-12-31T05:18:16.466Z,96.87
2016-12-31T05:19:22.676Z,96.87
2016-12-31T05:20:27.895Z,96.78
2016-12-31T05:21:34.014Z,96.78
2016-12-31T05:22:40.177Z,96.96
2016-12-31T05:23:45.373Z,96.96
2016-12-31T05:24:49.661Z,96.96
2016-12-31T05:25:54.851Z,97.72
2016-12-31T05:27:01.014Z,97.72
2016-12-31T05:28:06.200Z,97.34
2016-12-31T05:29:11.435Z,97.53
2016-12-31T05:30:17.600Z,97.81
2016-12-31T05:31:23.760Z,98.19
2016-12-31T05:32:28.962Z,97.53
2016-12-31T05:33:35.116Z,97.53
2016-12-31T05:34:38.377Z,98.19
2016-12-31T05:35:43.574Z,97.81
2016-12-31T05:36:48.766Z,98.1
2016-12-31T05:37:54.946Z,97.53
2016-12-31T05:39:01.112Z,97.67
2016-12-31T05:40:07.270Z,97.58
2016-12-31T05:41:12.461Z,97.49
2016-12-31T05:42:17.722Z,97.01
2016-12-31T05:43:22.908Z,96.92
2016-12-31T05:44:27.188Z,96.92
2016-12-31T05:45:31.414Z,96.83
2016-12-31T05:46:37.586Z,97.01
2016-12-31T05:47:43.755Z,96.92
2016-12-31T05:48:48.942Z,96.83
2016-12-31T05:49:55.101Z,97.2
2016-12-31T05:51:01.269Z,96.64
2016-12-31T05:52:06.473Z,96.54
2016-12-31T05:53:11.650Z,96.07
2016-12-31T05:54:17.838Z,96.54
2016-12-31T05:55:22.999Z,96.64
2016-12-31T05:56:29.166Z,96.26
2016-12-31T05:57:33.415Z,96.07
2016-12-31T05:58:38.628Z,95.69
2016-12-31T05:59:43.800Z,95.21
2016-12-31T06:00:49.961Z,95.21
2016-12-31T06:01:56.131Z,94.93
2016-12-31T06:03:00.428Z,95.31
2016-12-31T06:04:06.567Z,95.31
2016-12-31T06:05:11.917Z,95.21
2016-12-31T06:06:18.068Z,94.65
2016-12-31T06:07:23.262Z,94.65
2016-12-31T06:08:29.426Z,94.65
2016-12-31T06:09:35.594Z,94.56
2016-12-31T06:10:39.832Z,94.46
2016-12-31T06:11:46.043Z,94.74
2016-12-31T06:12:52.020Z,93.89
2016-12-31T06:13:58.213Z,94.74
2016-12-31T06:15:04.347Z,94.08
2016-12-31T06:16:09.296Z,94.37
2016-12-31T06:17:14.496Z,93.99
2016-12-31T06:18:19.667Z,94.08
2016-12-31T06:19:24.866Z,94.65
2016-12-31T06:20:31.090Z,94.08
2016-12-31T06:21:35.260Z,94.08
2016-12-31T06:22:41.424Z,93.99
2016-12-31T06:23:46.625Z,94.08
2016-12-31T06:24:51.757Z,93.8
2016-12-31T06:25:55.982Z,93.8
2016-12-31T06:27:02.179Z,93.89
2016-12-31T06:28:07.380Z,94.27
2016-12-31T06:29:12.569Z,94.27
2016-12-31T06:30:17.772Z,93.42
2016-12-31T06:31:22.001Z,93.51
2016-12-31T06:32:28.161Z,93.51
2016-12-31T06:33:33.348Z,93.23
2016-12-31T06:34:39.510Z,93.32
2016-12-31T06:35:43.757Z,93.23
2016-12-31T06:36:46.024Z,93.04
2016-12-31T06:37:52.188Z,92.94
2016-12-31T06:38:57.377Z,92.85
2016-12-31T06:40:02.540Z,92.85
2016-12-31T06:41:07.733Z,92.66
2016-12-31T06:42:11.962Z,93.13
2016-12-31T06:43:18.128Z,93.04
2016-12-31T06:44:23.326Z,92.66
2016-12-31T06:45:27.614Z,92.76
2016-12-31T06:46:33.739Z,92.29
2016-12-31T06:47:38.900Z,92.38
2016-12-31T06:48:43.169Z,92.66
2016-12-31T06:49:49.338Z,92.66
2016-12-31T06:50:54.540Z,92.38
2016-12-31T06:51:57.818Z,92.38
2016-12-31T06:53:02.973Z,93.04
2016-12-31T06:54:09.135Z,92.76
2016-12-31T06:55:14.333Z,93.04
2016-12-31T06:56:19.526Z,92.94
2016-12-31T06:57:24.727Z,93.04
2016-12-31T06:58:30.880Z,92.94
2016-12-31T06:59:37.041Z,93.23
2016-12-31T07:00:42.264Z,93.51
2016-12-31T07:01:47.424Z,93.51
2016-12-31T07:02:52.617Z,93.7
2016-12-31T07:03:58.856Z,93.42
2016-12-31T07:05:05.016Z,93.61
2016-12-31T07:06:11.174Z,93.7
2016-12-31T07:07:15.454Z,93.7
2016-12-31T07:08:19.675Z,93.8
2016-12-31T07:09:25.846Z,93.23
2016-12-31T07:10:31.042Z,93.32
2016-12-31T07:11:36.230Z,93.13
2016-12-31T07:12:41.423Z,93.23
2016-12-31T07:13:47.582Z,93.23
2016-12-31T07:14:51.812Z,93.23
2016-12-31T07:15:56.026Z,93.13
2016-12-31T07:17:01.218Z,93.23
2016-12-31T07:18:06.411Z,93.8
2016-12-31T07:19:12.598Z,93.7
2016-12-31T07:20:16.827Z,93.8
2016-12-31T07:21:23.001Z,93.99
2016-12-31T07:22:29.163Z,93.51
2016-12-31T07:23:33.395Z,93.8
2016-12-31T07:24:37.633Z,94.56
2016-12-31T07:25:43.796Z,94.08
2016-12-31T07:26:48.018Z,94.08
2016-12-31T07:27:53.299Z,94.46
2016-12-31T07:28:58.501Z,94.37
2016-12-31T07:30:04.656Z,94.08
2016-12-31T07:31:10.816Z,93.89
2016-12-31T07:32:16.017Z,94.18
2016-12-31T07:33:20.296Z,93.7
2016-12-31T07:34:25.640Z,94.08
2016-12-31T07:35:28.909Z,93.99
2016-12-31T07:36:34.125Z,93.61
2016-12-31T07:37:40.243Z,94.18
2016-12-31T07:38:46.404Z,94.46
2016-12-31T07:39:52.309Z,94.18
2016-12-31T07:40:57.489Z,94.65
2016-12-31T07:42:03.653Z,94.46
2016-12-31T07:43:09.812Z,94.56
2016-12-31T07:44:15.978Z,94.56
2016-12-31T07:45:19.288Z,95.21
2016-12-31T07:46:24.523Z,95.03
2016-12-31T07:47:30.659Z,95.31
2016-12-31T07:48:36.819Z,94.74
2016-12-31T07:49:42.984Z,94.84
2016-12-31T07:50:47.184Z,94.84
2016-12-31T07:51:52.352Z,94.84
2016-12-31T07:52:58.560Z,94.93
2016-12-31T07:54:02.794Z,94.65
2016-12-31T07:55:07.983Z,94.46
2016-12-31T07:56:14.173Z,94.56
2016-12-31T07:57:20.304Z,94.84
2016-12-31T07:58:26.467Z,94.74
2016-12-31T07:59:32.682Z,94.93
2016-12-31T08:00:37.870Z,95.4
2016-12-31T08:01:43.072Z,95.5
2016-12-31T08:02:47.358Z,95.21
2016-12-31T08:03:53.554Z,95.69
2016-12-31T08:04:59.715Z,95.69
2016-12-31T08:06:04.916Z,95.78
2016-12-31T08:07:10.094Z,95.69
2016-12-31T08:08:16.281Z,95.59
2016-12-31T08:09:21.443Z,95.88
2016-12-31T08:10:27.605Z,96.26
2016-12-31T08:11:33.765Z,96.16
2016-12-31T08:12:36.995Z,95.69
2016-12-31T08:13:42.188Z,95.12
2016-12-31T08:14:47.378Z,95.31
2016-12-31T08:15:52.581Z,95.03
2016-12-31T08:16:58.745Z,95.69
2016-12-31T08:18:02.974Z,95.03
2016-12-31T08:19:08.276Z,96.16
2016-12-31T08:20:13.476Z,96.16
2016-12-31T08:21:19.647Z,95.88
2016-12-31T08:22:24.837Z,95.88
2016-12-31T08:23:30.035Z,95.59
2016-12-31T08:24:36.215Z,95.78
2016-12-31T08:25:42.385Z,95.97
2016-12-31T08:26:48.538Z,95.97
2016-12-31T08:27:54.712Z,96.07
2016-12-31T08:29:00.881Z,95.69
2016-12-31T08:30:07.044Z,95.69
2016-12-31T08:31:13.217Z,95.78
2016-12-31T08:32:18.377Z,95.88
2016-12-31T08:33:22.605Z,95.88
2016-12-31T08:34:28.767Z,96.07
2016-12-31T08:35:33.965Z,95.97
2016-12-31T08:36:38.218Z,95.78
2016-12-31T08:37:43.413Z,95.21
2016-12-31T08:38:48.603Z,95.12
2016-12-31T08:39:52.832Z,96.26
2016-12-31T08:40:57.060Z,95.78
2016-12-31T08:42:02.254Z,95.97
2016-12-31T08:43:06.493Z,96.07
2016-12-31T08:44:12.621Z,95.97
2016-12-31T08:45:17.791Z,95.97
2016-12-31T08:46:22.007Z,95.88
2016-12-31T08:47:26.220Z,96.26
2016-12-31T08:48:32.394Z,96.35
2016-12-31T08:49:38.554Z,95.69
2016-12-31T08:50:44.718Z,95.31
2016-12-31T08:51:50.888Z,95.03
2016-12-31T08:52:56.087Z,95.21
2016-12-31T08:54:02.251Z,95.12
2016-12-31T08:55:08.542Z,95.31
2016-12-31T08:56:14.422Z,95.5
2016-12-31T08:57:19.618Z,95.69
2016-12-31T08:58:24.814Z,95.78
2016-12-31T08:59:30.971Z,95.69
2016-12-31T09:00:37.147Z,95.5
2016-12-31T09:01:43.319Z,95.4
2016-12-31T09:02:49.511Z,95.31
2016-12-31T09:03:55.678Z,95.5
2016-12-31T09:05:01.858Z,95.5
2016-12-31T09:06:08.022Z,95.78
2016-12-31T09:07:14.183Z,95.78
2016-12-31T09:08:20.341Z,96.16
2016-12-31T09:09:26.565Z,95.88
2016-12-31T09:10:30.789Z,95.88
2016-12-31T09:11:35.988Z,96.07
2016-12-31T09:12:42.168Z,95.5
2016-12-31T09:13:47.344Z,95.69
2016-12-31T09:14:52.511Z,95.97
2016-12-31T09:15:57.708Z,95.88
2016-12-31T09:17:03.988Z,95.59
2016-12-31T09:18:09.185Z,95.97
2016-12-31T09:19:15.346Z,95.69
2016-12-31T09:20:21.502Z,96.45
2016-12-31T09:21:26.705Z,95.97
2016-12-31T09:22:31.903Z,96.07
2016-12-31T09:23:38.065Z,96.07
2016-12-31T09:24:44.222Z,95.69
2016-12-31T09:25:48.561Z,96.16
2016-12-31T09:26:53.879Z,95.88
2016-12-31T09:27:59.075Z,95.78
2016-12-31T09:29:05.300Z,96.26
2016-12-31T09:30:10.430Z,95.88
2016-12-31T09:31:14.707Z,95.88
2016-12-31T09:32:19.963Z,96.16
2016-12-31T09:33:24.228Z,95.5
2016-12-31T09:34:28.538Z,95.31
2016-12-31T09:35:33.735Z,95.4
2016-12-31T09:36:37.933Z,94.93
2016-12-31T09:37:42.160Z,95.21
2016-12-31T09:38:48.321Z,95.59
2016-12-31T09:39:52.541Z,95.21
2016-12-31T09:40:57.699Z,94.84
2016-12-31T09:42:02.892Z,94.74
2016-12-31T09:43:09.116Z,95.12
2016-12-31T09:44:15.276Z,95.5
2016-12-31T09:45:21.185Z,95.12
2016-12-31T09:46:27.349Z,94.93
2016-12-31T09:47:33.518Z,94.84
2016-12-31T09:48:39.684Z,95.03
2016-12-31T09:49:43.916Z,94.74
2016-12-31T09:50:49.112Z,94.93
2016-12-31T09:51:54.304Z,94.46
2016-12-31T09:52:58.503Z,94.65
2016-12-31T09:54:04.672Z,94.18
2016-12-31T09:55:10.841Z,94.18
2016-12-31T09:56:16.028Z,93.8
2016-12-31T09:57:21.579Z,93.7
2016-12-31T09:58:25.778Z,93.89
2016-12-31T09:59:30.974Z,94.18
2016-12-31T10:00:34.246Z,93.89
2016-12-31T10:01:37.479Z,93.7
2016-12-31T10:02:43.631Z,93.75
2016-12-31T10:03:48.839Z,93.8
2016-12-31T10:04:55.053Z,93.32
2016-12-31T10:06:01.215Z,93.18
2016-12-31T10:07:06.403Z,93.04
2016-12-31T10:08:12.569Z,93.04
2016-12-31T10:09:18.729Z,93.32
2016-12-31T10:10:23.922Z,93.04
2016-12-31T10:11:30.185Z,92.94
2016-12-31T10:13:40.581Z,93.04
2016-12-31T10:14:45.783Z,93.32
2016-12-31T10:15:51.950Z,92.85
2016-12-31T10:16:58.114Z,92.94
2016-12-31T10:18:01.473Z,92.52
2016-12-31T10:19:06.649Z,92.61
2016-12-31T10:20:11.853Z,92.71
2016-12-31T10:21:17.065Z,92.52
2016-12-31T10:22:22.268Z,92.38
2016-12-31T10:23:28.398Z,92.19
2016-12-31T10:24:34.616Z,92.52
2016-12-31T10:25:40.841Z,92.33
2016-12-31T10:26:47.005Z,91.58
2016-12-31T10:27:52.196Z,92.05
2016-12-31T10:28:58.354Z,91.96
2016-12-31T10:30:03.641Z,91.39
2016-12-31T10:31:09.800Z,91.58
2016-12-31T10:32:14.111Z,91.39
2016-12-31T10:33:18.419Z,91.34
2016-12-31T10:34:23.867Z,91.58
2016-12-31T10:35:30.126Z,91.48
2016-12-31T10:36:34.324Z,91.96
2016-12-31T10:37:38.528Z,91.39
2016-12-31T10:38:43.719Z,91.1
2016-12-31T10:39:47.926Z,91.67
2016-12-31T10:40:53.201Z,91.39
2016-12-31T10:41:58.473Z,91.29
2016-12-31T10:44:09.836Z,91.01
2016-12-31T10:45:15.034Z,91.39
2016-12-31T10:46:21.197Z,90.44
2016-12-31T10:47:27.352Z,90.16
2016-12-31T10:48:32.620Z,90.53
2016-12-31T10:49:37.814Z,90.63
2016-12-31T10:50:42.014Z,90.72
2016-12-31T10:51:47.215Z,91.2
2016-12-31T10:52:52.404Z,91.1
2016-12-31T10:53:57.598Z,91.29
2016-12-31T10:55:03.784Z,91.01
2016-12-31T10:56:08.986Z,91.29
2016-12-31T10:57:14.183Z,91.29
2016-12-31T10:58:20.351Z,91.48
2016-12-31T10:59:26.741Z,91.01
2016-12-31T11:00:30.983Z,91.2
2016-12-31T11:01:35.210Z,91.29
2016-12-31T11:02:40.502Z,91.48
2016-12-31T11:03:45.665Z,91.39
2016-12-31T11:04:50.867Z,91.72
2016-12-31T11:05:57.077Z,92.05
2016-12-31T11:07:01.300Z,92
2016-12-31T11:08:06.605Z,92.05
2016-12-31T11:09:12.785Z,91.86
2016-12-31T11:10:18.000Z,91.77
2016-12-31T11:11:23.192Z,92
2016-12-31T11:12:29.365Z,92
2016-12-31T11:13:34.640Z,92.71
2016-12-31T11:14:39.859Z,92.57
2016-12-31T11:15:46.046Z,92.61
2016-12-31T11:16:52.221Z,92.71
2016-12-31T11:17:55.484Z,92.71
2016-12-31T11:19:00.699Z,92.43
2016-12-31T11:20:05.954Z,92.71
2016-12-31T11:21:09.962Z,92.61
2016-12-31T11:22:13.197Z,92.71
2016-12-31T11:23:17.819Z,92.71
2016-12-31T11:24:24.000Z,92.43
2016-12-31T11:25:28.353Z,92.9
2016-12-31T11:26:34.537Z,93.37
2016-12-31T11:27:37.776Z,92.99
2016-12-31T11:28:43.936Z,93.28
2016-12-31T11:29:49.103Z,93.28
2016-12-31T11:30:53.435Z,92.99
2016-12-31T11:31:58.643Z,92.9
2016-12-31T11:33:04.936Z,93.18
2016-12-31T11:34:11.066Z,93.09
2016-12-31T11:35:16.263Z,93.09
2016-12-31T11:36:20.491Z,92.9
2016-12-31T11:37:26.658Z,92.71
2016-12-31T11:38:31.860Z,92.71
2016-12-31T11:39:38.040Z,92.8
2016-12-31T11:40:44.208Z,92.61
2016-12-31T11:41:50.375Z,92.24
2016-12-31T11:42:54.612Z,91.86
2016-12-31T11:43:59.795Z,92.14
2016-12-31T11:45:05.953Z,92.05
2016-12-31T11:46:12.187Z,91.77
2016-12-31T11:47:18.353Z,92.14
2016-12-31T11:48:22.572Z,92.43
2016-12-31T11:49:25.841Z,92.52
2016-12-31T11:50:31.014Z,91.96
2016-12-31T11:51:37.176Z,91.86
2016-12-31T11:52:41.406Z,92.14
2016-12-31T11:53:44.665Z,92.05
2016-12-31T11:54:49.862Z,92.43
2016-12-31T11:55:56.047Z,92.43
2016-12-31T11:57:01.296Z,92.14
2016-12-31T11:58:05.531Z,92.24
2016-12-31T11:59:10.744Z,92.05
2016-12-31T12:00:15.954Z,92.05
2016-12-31T12:01:22.121Z,92.14
2016-12-31T12:02:26.479Z,92.14
2016-12-31T12:03:32.775Z,92.05
2016-12-31T12:04:38.952Z,91.96
2016-12-31T12:05:44.137Z,92.05
2016-12-31T12:06:49.329Z,91.77
2016-12-31T12:07:55.781Z,91.29
2016-12-31T12:09:01.939Z,91.29
2016-12-31T12:10:07.132Z,91.96
2016-12-31T12:11:13.309Z,91.86
2016-12-31T12:12:17.509Z,91.29
2016-12-31T12:13:20.746Z,91.1
2016-12-31T12:14:26.906Z,91.01
2016-12-31T12:15:33.071Z,91.29
2016-12-31T12:16:37.266Z,91.29
2016-12-31T12:17:42.472Z,91.58
2016-12-31T12:18:48.643Z,90.53
2016-12-31T12:19:54.805Z,90.63
2016-12-31T12:21:01.054Z,90.53
2016-12-31T12:22:07.219Z,91.58
2016-12-31T12:23:12.416Z,90.53
2016-12-31T12:24:17.615Z,90.72
2016-12-31T12:25:22.811Z,90.63
2016-12-31T12:26:28.985Z,90.72
2016-12-31T12:27:35.359Z,90.82
2016-12-31T12:28:40.562Z,90.72
2016-12-31T12:29:44.767Z,90.53
2016-12-31T12:30:50.968Z,91.39
2016-12-31T12:31:56.173Z,91.2
2016-12-31T12:33:02.338Z,91.48
2016-12-31T12:34:06.574Z,90.63
2016-12-31T12:35:12.804Z,90.16
2016-12-31T12:36:18.675Z,90.53
2016-12-31T12:37:23.995Z,90.63
2016-12-31T12:38:30.161Z,90.16
2016-12-31T12:39:36.325Z,90.63
2016-12-31T12:40:42.590Z,90.72
2016-12-31T12:41:48.749Z,90.72
2016-12-31T12:42:52.944Z,90.53
2016-12-31T12:43:58.126Z,90.53
2016-12-31T12:45:04.301Z,90.63
2016-12-31T12:46:08.524Z,90.82
2016-12-31T12:47:13.724Z,90.63
2016-12-31T12:48:19.912Z,90.72
2016-12-31T12:49:25.073Z,90.63
2016-12-31T12:50:29.349Z,90.34
2016-12-31T12:51:35.514Z,90.63
2016-12-31T12:52:41.684Z,89.78
2016-12-31T12:53:47.861Z,90.2
2016-12-31T12:54:54.025Z,90.44
2016-12-31T12:55:57.338Z,90.44
2016-12-31T12:57:03.507Z,90.2
2016-12-31T12:58:09.679Z,90.2
2016-12-31T12:59:15.956Z,90.39
2016-12-31T13:00:21.155Z,90.91
2016-12-31T13:01:27.324Z,91.01
2016-12-31T13:02:32.520Z,91.01
2016-12-31T13:03:38.687Z,91.2
2016-12-31T13:04:42.925Z,91.01
2016-12-31T13:05:47.236Z,91.2
2016-12-31T13:06:52.434Z,91.62
2016-12-31T13:07:57.630Z,90.53
2016-12-31T13:09:01.845Z,90.63
2016-12-31T13:10:07.036Z,90.96
2016-12-31T13:11:12.360Z,91.2
2016-12-31T13:12:17.555Z,91.24
2016-12-31T13:13:23.860Z,91.05
2016-12-31T13:14:30.032Z,90.48
2016-12-31T13:15:35.199Z,90.77
2016-12-31T13:16:38.466Z,90.58
2016-12-31T13:17:43.680Z,90.67
2016-12-31T13:18:48.876Z,90.58
2016-12-31T13:19:53.106Z,90.58
2016-12-31T13:20:59.267Z,90.67
2016-12-31T13:22:03.523Z,90.77
2016-12-31T13:23:08.690Z,90.77
2016-12-31T13:24:12.926Z,90.48
2016-12-31T13:25:19.169Z,90.58
2016-12-31T13:26:25.402Z,90.67
2016-12-31T13:27:31.656Z,90.58
2016-12-31T13:28:36.730Z,90.2
2016-12-31T13:29:40.985Z,90.58
2016-12-31T13:30:47.124Z,90.3
2016-12-31T13:31:51.425Z,90.2
2016-12-31T13:32:56.663Z,90.86
2016-12-31T13:34:02.875Z,90.77
2016-12-31T13:35:08.131Z,90.58
2016-12-31T13:36:13.414Z,91.05
2016-12-31T13:37:19.657Z,91.24
2016-12-31T13:38:25.902Z,91.34
2016-12-31T13:39:32.042Z,91.34
2016-12-31T13:40:37.234Z,91.34
2016-12-31T13:41:42.457Z,91.05
2016-12-31T13:42:46.627Z,91.24
2016-12-31T13:43:51.913Z,90.86
2016-12-31T13:44:58.024Z,91.05
2016-12-31T13:46:03.217Z,91.43
2016-12-31T13:47:08.422Z,91.53
2016-12-31T13:48:12.667Z,91.24
2016-12-31T13:49:17.860Z,90.39
2016-12-31T13:50:24.135Z,90.58
2016-12-31T13:51:28.955Z,90.58
2016-12-31T13:52:35.106Z,90.67
2016-12-31T13:53:41.446Z,90.58
2016-12-31T13:54:46.657Z,90.77
2016-12-31T13:55:52.827Z,90.48
2016-12-31T13:56:58.020Z,90.67
2016-12-31T13:58:03.228Z,90.48
2016-12-31T13:59:08.422Z,90.58
2016-12-31T14:00:13.619Z,90.63
2016-12-31T14:01:19.784Z,90.77
2016-12-31T14:02:24.979Z,90.58
2016-12-31T14:03:30.175Z,91.24
2016-12-31T14:04:36.349Z,91.24
2016-12-31T14:05:41.590Z,91.05
2016-12-31T14:06:47.773Z,91.24
2016-12-31T14:07:51.040Z,91.15
2016-12-31T14:08:55.270Z,90.67
2016-12-31T14:10:01.435Z,90.67